Time;durP1;ratioP1;P1;durP2;ratioP2;P2;SDS_P1;SDS_P2;PMS_P1;PMS_P2;Temp;Humidity;BMP_temperature;BMP_pressure;BME280_temperature;BME280_humidity;BME280_pressure;Samples;Min_cycle;Max_cycle;Signal;HPM_P1;HPM_P2
2022/03/05 00:00:35;;;;;;;;;53.50;39.00;;;;;10.40;81.83;101526.31;5059996;28;45343;-66
2022/03/05 00:03:00;;;;;;;;;51.50;38.50;;;;;10.37;82.05;101529.81;5059719;28;45312;-65
2022/03/05 00:05:26;;;;;;;;;60.75;41.00;;;;;10.35;81.54;101527.22;5060692;28;45216;-65
2022/03/05 00:07:51;;;;;;;;;46.25;38.00;;;;;10.32;82.07;101524.69;5059539;28;45315;-65
2022/03/05 00:10:19;;;;;;;;;49.00;35.25;;;;;10.33;81.39;101517.75;5060059;28;45277;-64
2022/03/05 00:12:51;;;;;;;;;57.25;37.00;;;;;10.33;81.81;101516.00;5060980;28;45237;-67
2022/03/05 00:15:18;;;;;;;;;54.50;35.50;;;;;10.32;82.07;101519.47;5058914;28;45548;-65
2022/03/05 00:17:44;;;;;;;;;54.50;39.75;;;;;10.32;82.04;101510.84;5060484;28;46485;-64
2022/03/05 00:20:10;;;;;;;;;47.25;36.25;;;;;10.31;82.09;101519.50;5058433;28;45974;-64
2022/03/05 00:22:36;;;;;;;;;63.25;41.25;;;;;10.28;82.11;101512.63;5058411;28;45382;-74
2022/03/05 00:25:03;;;;;;;;;53.00;37.00;;;;;10.26;82.33;101519.56;5058435;28;45466;-80
2022/03/05 00:27:29;;;;;;;;;51.25;38.25;;;;;10.25;83.01;101514.41;5058363;28;46508;-77
2022/03/05 00:29:55;;;;;;;;;51.00;39.00;;;;;10.21;82.42;101518.78;5058083;28;45351;-81
2022/03/05 00:32:20;;;;;;;;;62.50;43.25;;;;;10.21;83.07;101517.91;5058734;28;45610;-68
2022/03/05 00:34:45;;;;;;;;;59.50;42.00;;;;;10.19;82.74;101509.25;5058133;28;45337;-71
2022/03/05 00:37:11;;;;;;;;;63.75;47.00;;;;;10.24;82.44;101521.34;5056951;28;47759;-66
2022/03/05 00:39:36;;;;;;;;;72.25;51.50;;;;;10.30;82.45;101517.78;5057517;28;45687;-78
2022/03/05 00:42:03;;;;;;;;;69.25;47.25;;;;;10.31;82.36;101515.16;5060020;28;45299;-73
2022/03/05 00:44:28;;;;;;;;;61.25;44.25;;;;;10.38;82.18;101515.94;5059760;28;45448;-76
2022/03/05 00:46:54;;;;;;;;;70.25;51.25;;;;;10.45;82.30;101521.91;5059562;28;45614;-80
2022/03/05 00:49:20;;;;;;;;;81.50;53.50;;;;;10.47;82.11;101508.03;5058456;28;45388;-74
2022/03/05 00:51:45;;;;;;;;;75.50;53.00;;;;;10.51;81.81;101517.47;5058884;28;45390;-70
2022/03/05 00:54:10;;;;;;;;;60.50;46.00;;;;;10.52;81.90;101513.16;5059583;28;45647;-66
2022/03/05 00:56:36;;;;;;;;;73.75;54.25;;;;;10.52;81.70;101508.81;5059953;28;46388;-68
2022/03/05 00:59:01;;;;;;;;;74.00;53.50;;;;;10.49;81.99;101508.00;5059512;28;45354;-67
2022/03/05 01:01:27;;;;;;;;;71.50;51.25;;;;;10.48;81.55;101514.94;5059702;28;45422;-66
2022/03/05 01:03:52;;;;;;;;;68.50;49.50;;;;;10.48;81.93;101507.13;5059321;28;45624;-68
2022/03/05 01:06:17;;;;;;;;;62.25;45.75;;;;;10.50;81.75;101505.38;5059537;28;45353;-71
2022/03/05 01:08:43;;;;;;;;;67.50;45.75;;;;;10.50;81.68;101505.38;5059518;28;45278;-73
2022/03/05 01:11:08;;;;;;;;;62.50;43.00;;;;;10.54;81.88;101508.78;5058285;28;45258;-82
2022/03/05 01:13:37;;;;;;;;;58.75;43.75;;;;;10.51;81.81;101501.03;5059456;28;45556;-79
2022/03/05 01:16:02;;;;;;;;;52.25;40.00;;;;;10.51;81.60;101509.69;5059623;28;45593;-79
2022/03/05 01:18:28;;;;;;;;;51.25;41.00;;;;;10.52;81.45;101507.94;5059185;28;45406;-80
2022/03/05 01:20:53;;;;;;;;;59.75;39.50;;;;;10.50;82.07;101504.50;5058836;28;45440;-81
2022/03/05 01:23:18;;;;;;;;;56.00;40.75;;;;;10.44;81.99;101504.63;5059062;28;45469;-78
2022/03/05 01:25:44;;;;;;;;;55.00;34.50;;;;;10.41;82.20;101515.03;5059803;28;45342;-80
2022/03/05 01:28:09;;;;;;;;;56.25;39.75;;;;;10.41;81.69;101505.53;5059058;28;45402;-78
2022/03/05 01:30:35;;;;;;;;;54.75;33.25;;;;;10.40;81.95;101501.19;5059651;28;46449;-78
2022/03/05 01:33:01;;;;;;;;;58.25;39.25;;;;;10.46;81.63;101502.84;5059017;28;45407;-77
2022/03/05 01:35:27;;;;;;;;;54.25;39.00;;;;;10.50;81.40;101500.19;5059476;28;45422;-75
2022/03/05 01:37:52;;;;;;;;;59.50;43.75;;;;;10.46;80.95;101497.66;5058786;28;45358;-80
2022/03/05 01:40:18;;;;;;;;;58.25;39.00;;;;;10.43;80.73;101498.56;5059115;28;45279;-76
2022/03/05 01:42:43;;;;;;;;;44.75;38.50;;;;;10.40;80.86;101492.53;5091635;27;45763;-71
2022/03/05 01:45:12;;;;;;;;;51.00;36.75;;;;;10.40;80.95;101498.56;5059434;28;46347;-78
2022/03/05 01:47:38;;;;;;;;;56.25;35.25;;;;;10.41;80.78;101502.03;5058742;28;45264;-76
2022/03/05 01:50:05;;;;;;;;;59.75;40.00;;;;;10.39;80.70;101501.19;5057780;28;45351;-76
2022/03/05 01:52:30;;;;;;;;;52.25;40.50;;;;;10.38;80.75;101510.72;5059194;28;45309;-73
2022/03/05 01:54:56;;;;;;;;;52.25;43.25;;;;;10.38;80.32;101510.72;5058688;28;45389;-76
2022/03/05 01:57:21;;;;;;;;;59.25;44.75;;;;;10.35;80.31;101513.38;5059250;28;45525;-76
2022/03/05 01:59:48;;;;;;;;;46.25;39.25;;;;;10.28;79.98;101512.63;5091758;27;45329;-77
2022/03/05 02:02:13;;;;;;;;;54.25;41.50;;;;;10.25;80.28;101506.63;5059287;28;45378;-76
2022/03/05 02:04:39;;;;;;;;;56.25;40.00;;;;;10.20;80.33;101508.34;5058696;28;45539;-74
2022/03/05 02:07:04;;;;;;;;;54.75;38.50;;;;;10.15;80.10;101503.22;5058758;28;45426;-73
2022/03/05 02:09:30;;;;;;;;;47.75;37.50;;;;;10.15;80.67;101505.84;5058285;28;45223;-73
2022/03/05 02:11:55;;;;;;;;;53.75;38.25;;;;;10.13;80.58;101509.34;5058413;28;45442;-76
2022/03/05 02:14:21;;;;;;;;;50.50;38.75;;;;;10.13;80.42;101509.34;5058134;28;46432;-78
2022/03/05 02:16:47;;;;;;;;;45.25;36.25;;;;;10.12;80.40;101512.81;5058080;28;45228;-76
2022/03/05 02:19:12;;;;;;;;;46.50;34.50;;;;;10.11;80.36;101504.16;5056604;28;45241;-77
2022/03/05 02:21:38;;;;;;;;;42.75;34.00;;;;;10.13;80.15;101504.13;5073708;28;45519;-78
2022/03/05 02:24:04;;;;;;;;;48.50;37.50;;;;;10.14;80.72;101501.53;5061338;28;46279;-78
2022/03/05 02:26:29;;;;;;;;;53.50;39.75;;;;;10.17;80.61;101498.88;5061563;28;45359;-78
2022/03/05 02:28:55;;;;;;;;;47.75;37.75;;;;;10.17;80.50;101504.06;5060449;28;45321;-78
2022/03/05 02:31:21;;;;;;;;;43.25;33.25;;;;;10.18;80.85;101503.19;5060098;28;45684;-77
2022/03/05 02:33:48;;;;;;;;;56.00;39.00;;;;;10.18;80.93;101500.59;5061211;28;46440;-72
2022/03/05 02:36:13;;;;;;;;;49.75;36.50;;;;;10.20;80.58;101509.22;5061371;28;45797;-76
2022/03/05 02:38:38;;;;;;;;;42.75;32.75;;;;;10.17;80.50;101503.22;5060561;28;45472;-76
2022/03/05 02:41:04;;;;;;;;;48.00;33.50;;;;;10.15;80.56;101502.38;5058843;28;45482;-76
2022/03/05 02:43:29;;;;;;;;;45.25;35.50;;;;;10.15;80.86;101503.22;5059841;28;46947;-76
2022/03/05 02:45:55;;;;;;;;;49.50;34.25;;;;;10.16;80.77;101497.16;5061596;28;45206;-76
2022/03/05 02:48:21;;;;;;;;;40.75;37.00;;;;;10.18;80.53;101494.53;5060173;28;45296;-76
2022/03/05 02:50:48;;;;;;;;;41.00;31.00;;;;;10.17;80.81;101492.81;5059538;28;45489;-76
2022/03/05 02:53:14;;;;;;;;;48.25;37.75;;;;;10.15;80.56;101497.19;5061495;28;46590;-76
2022/03/05 02:55:40;;;;;;;;;45.75;36.00;;;;;10.13;81.15;101484.22;5061913;28;45776;-76
2022/03/05 02:58:06;;;;;;;;;54.50;38.25;;;;;10.10;80.70;101483.41;5058128;28;45348;-76
2022/03/05 03:00:32;;;;;;;;;45.25;34.25;;;;;10.12;81.05;101489.44;5059246;28;45526;-76
2022/03/05 03:02:58;;;;;;;;;46.75;35.75;;;;;10.10;80.37;101486.00;5058807;28;45541;-76
2022/03/05 03:05:23;;;;;;;;;50.75;36.25;;;;;10.10;80.59;101483.41;5059193;28;45564;-76
2022/03/05 03:07:49;;;;;;;;;44.25;33.75;;;;;10.11;80.85;101485.13;5059108;28;45370;-76
2022/03/05 03:10:15;;;;;;;;;38.25;33.50;;;;;10.13;80.86;101483.34;5059311;28;45588;-76
2022/03/05 03:12:42;;;;;;;;;49.75;38.50;;;;;10.15;80.50;101481.59;5059010;28;48640;-79
2022/03/05 03:15:11;;;;;;;;;51.25;38.25;;;;;10.15;80.50;101481.59;5094047;27;45365;-74
2022/03/05 03:18:02;;;;;;;;;53.75;39.50;;;;;10.12;80.61;101481.66;5061551;28;45369;-74
2022/03/05 03:20:28;;;;;;;;;48.00;38.25;;;;;10.08;80.68;101475.63;5059654;27;45525;-74
2022/03/05 03:22:55;;;;;;;;;60.00;42.00;;;;;10.05;80.41;101483.47;5076957;28;48246;-75
2022/03/05 03:25:21;;;;;;;;;48.75;39.25;;;;;10.03;81.20;101472.25;5059768;28;46026;-74
2022/03/05 03:27:47;;;;;;;;;50.50;37.75;;;;;10.03;80.90;101480.91;5061441;28;45441;-74
2022/03/05 03:30:14;;;;;;;;;46.00;31.75;;;;;9.99;80.65;101474.00;5061111;28;45406;-78
2022/03/05 03:32:40;;;;;;;;;51.75;36.50;;;;;9.95;80.92;101484.47;5061005;28;46448;-76
2022/03/05 03:35:07;;;;;;;;;49.50;37.00;;;;;9.90;80.90;101481.06;5059907;28;45273;-70
2022/03/05 03:37:33;;;;;;;;;51.75;39.00;;;;;9.83;81.13;101480.31;5061364;28;45270;-70
2022/03/05 03:40:00;;;;;;;;;50.50;36.75;;;;;9.85;80.82;101481.13;5060935;28;45361;-73
2022/03/05 03:42:26;;;;;;;;;44.75;32.50;;;;;9.85;80.60;101482.88;5060998;28;45419;-73
2022/03/05 03:44:52;;;;;;;;;40.75;34.25;;;;;9.82;80.92;101483.78;5060887;28;45840;-73
2022/03/05 03:47:19;;;;;;;;;43.00;33.25;;;;;9.81;80.77;101487.25;5060581;28;45484;-74
2022/03/05 03:49:45;;;;;;;;;47.25;35.75;;;;;9.78;80.84;101482.06;5060664;28;45339;-75
2022/03/05 03:52:13;;;;;;;;;48.00;35.00;;;;;9.75;80.87;101479.53;5060821;28;46430;-75
2022/03/05 03:54:39;;;;;;;;;35.00;28.00;;;;;9.74;80.48;101480.41;5060440;28;45529;-75
2022/03/05 03:57:04;;;;;;;;;46.25;36.00;;;;;9.72;80.93;101479.56;5076577;28;45530;-75
2022/03/05 03:59:29;;;;;;;;;44.50;34.00;;;;;9.72;80.65;101476.97;5060736;28;45319;-75
2022/03/05 04:01:55;;;;;;;;;54.00;37.00;;;;;9.75;80.79;101482.97;5060644;28;45368;-74
2022/03/05 04:04:20;;;;;;;;;48.25;34.75;;;;;9.76;80.68;101479.50;5060441;28;45449;-74
2022/03/05 04:09:30;;;;;;;;;49.50;37.00;;;;;9.76;81.15;101483.81;5047514;28;45323;-74
2022/03/05 04:11:55;;;;;;;;;40.50;35.50;;;;;9.75;81.44;101482.13;5060391;28;45446;-74
2022/03/05 04:14:21;;;;;;;;;46.25;35.75;;;;;9.76;81.67;101486.44;5060715;28;45294;-74
2022/03/05 04:16:46;;;;;;;;;46.00;34.00;;;;;9.79;81.39;101488.13;5060546;28;45441;-75
2022/03/05 04:19:12;;;;;;;;;35.00;28.75;;;;;9.81;81.48;101488.97;5060143;28;45314;-74
2022/03/05 04:21:37;;;;;;;;;40.00;32.75;;;;;9.78;81.46;101487.25;5060125;28;46455;-75
2022/03/05 04:24:02;;;;;;;;;36.50;27.50;;;;;9.81;80.95;101489.84;5060493;28;45361;-72
2022/03/05 04:26:28;;;;;;;;;44.75;36.75;;;;;9.79;81.22;101481.19;5060286;28;45249;-73
2022/03/05 04:28:53;;;;;;;;;43.50;32.75;;;;;9.76;80.82;101487.28;5060550;28;45545;-71
2022/03/05 04:31:18;;;;;;;;;37.25;30.00;;;;;9.74;81.26;101488.19;5058805;28;47638;-71
2022/03/05 04:33:44;;;;;;;;;38.50;29.00;;;;;9.71;80.87;101496.00;5058917;28;45534;-73
2022/03/05 04:36:09;;;;;;;;;50.75;37.50;;;;;9.67;81.10;101497.78;5060420;28;45438;-72
2022/03/05 04:38:34;;;;;;;;;43.00;34.25;;;;;9.62;80.86;101491.81;5060257;28;45476;-72
2022/03/05 04:41:00;;;;;;;;;48.75;31.75;;;;;9.58;81.35;101494.41;5060229;28;46343;-75
2022/03/05 04:43:31;;;;;;;;;40.00;33.25;;;;;9.55;81.29;101499.66;5060229;28;45335;-75
2022/03/05 04:45:56;;;;;;;;;33.50;28.25;;;;;9.55;80.98;101494.47;5057944;28;45264;-74
2022/03/05 04:48:22;;;;;;;;;47.25;34.75;;;;;9.51;81.48;101498.84;5059729;28;45256;-74
2022/03/05 04:50:48;;;;;;;;;42.75;28.00;;;;;9.47;80.92;101494.56;5059994;28;45461;-74
2022/03/05 04:53:14;;;;;;;;;43.00;29.75;;;;;9.41;81.53;101499.78;5059620;28;45312;-75
2022/03/05 04:55:40;;;;;;;;;47.00;30.75;;;;;9.38;81.58;101498.09;5060106;28;45493;-74
2022/03/05 04:58:05;;;;;;;;;44.00;31.00;;;;;9.34;81.04;101503.34;5059858;28;45170;-75
2022/03/05 05:00:30;;;;;;;;;43.75;34.00;;;;;9.32;81.79;101502.50;5059736;28;45264;-79
2022/03/05 05:02:56;;;;;;;;;40.75;31.25;;;;;9.27;81.90;101497.34;5059453;28;45349;-77
2022/03/05 05:05:21;;;;;;;;;48.25;37.00;;;;;9.24;81.98;101497.41;5059977;28;45230;-79
2022/03/05 05:07:47;;;;;;;;;41.25;37.00;;;;;9.25;81.76;101498.25;5059639;28;45231;-74
2022/03/05 05:10:12;;;;;;;;;30.75;23.25;;;;;9.24;81.25;101499.13;5059798;28;45414;-73
2022/03/05 05:12:37;;;;;;;;;56.75;36.25;;;;;9.22;81.30;101500.88;5058089;28;45387;-74
2022/03/05 05:15:03;;;;;;;;;43.75;34.00;;;;;9.23;81.99;101506.06;5059687;28;45199;-73
2022/03/05 05:17:34;;;;;;;;;48.25;35.75;;;;;9.22;81.81;101501.75;5059350;28;45471;-73
2022/03/05 05:19:59;;;;;;;;;46.50;34.50;;;;;9.25;81.43;101508.63;5057776;28;48118;-73
2022/03/05 05:22:25;;;;;;;;;40.25;31.25;;;;;9.24;81.90;101506.91;5059770;28;45168;-73
2022/03/05 05:24:50;;;;;;;;;45.75;39.00;;;;;9.20;81.94;101505.19;5059753;28;45338;-73
2022/03/05 05:27:15;;;;;;;;;48.25;37.75;;;;;9.21;81.44;101507.81;5059574;28;45222;-73
2022/03/05 05:29:41;;;;;;;;;43.00;35.25;;;;;9.20;81.25;101516.44;5059340;28;45299;-72
2022/03/05 05:32:08;;;;;;;;;49.25;34.00;;;;;9.20;81.84;101507.78;5059404;28;45180;-76
2022/03/05 05:34:33;;;;;;;;;46.00;34.75;;;;;9.23;81.60;101518.16;5057931;28;45434;-74
2022/03/05 05:36:59;;;;;;;;;41.75;29.75;;;;;9.23;81.51;101521.59;5058523;28;45567;-75
2022/03/05 05:39:24;;;;;;;;;46.50;35.75;;;;;9.19;81.58;101513.84;5059100;28;45310;-77
2022/03/05 05:41:49;;;;;;;;;46.50;34.50;;;;;9.21;81.86;101525.06;5058045;28;45538;-77
2022/03/05 05:44:15;;;;;;;;;55.75;38.00;;;;;9.23;81.21;101523.34;5059409;28;45320;-72
2022/03/05 05:46:40;;;;;;;;;50.25;37.00;;;;;9.24;81.45;101531.09;5058641;28;45426;-72
2022/03/05 05:49:06;;;;;;;;;54.00;37.00;;;;;9.24;81.36;101528.50;5057726;28;47049;-72
2022/03/05 05:51:32;;;;;;;;;44.25;32.50;;;;;9.22;81.91;101532.00;5058850;28;45501;-72
2022/03/05 05:53:58;;;;;;;;;50.50;38.00;;;;;9.18;81.80;101528.56;5057771;28;45403;-70
2022/03/05 05:56:24;;;;;;;;;47.00;34.25;;;;;9.19;82.14;101527.69;5058816;28;45195;-69
2022/03/05 05:58:50;;;;;;;;;46.75;36.75;;;;;9.18;81.98;101538.06;5062525;28;46112;-69
2022/03/05 06:01:17;;;;;;;;;44.00;33.25;;;;;9.14;81.65;101534.66;5062322;28;45232;-69
2022/03/05 06:03:44;;;;;;;;;38.50;27.00;;;;;9.12;82.19;101532.06;5062652;28;45289;-69
2022/03/05 06:06:10;;;;;;;;;53.75;40.75;;;;;9.11;81.92;101535.53;5062354;28;45840;-73
2022/03/05 06:08:36;;;;;;;;;43.50;31.50;;;;;9.11;81.83;101539.88;5062560;28;45421;-73
2022/03/05 06:11:01;;;;;;;;;42.25;29.00;;;;;9.08;82.27;101534.72;5062358;28;45503;-74
2022/03/05 06:13:26;;;;;;;;;50.25;38.50;;;;;9.08;82.46;101534.72;5062588;28;45332;-73
2022/03/05 06:15:52;;;;;;;;;44.00;34.50;;;;;9.09;82.24;101537.28;5062059;28;45305;-73
2022/03/05 06:18:17;;;;;;;;;55.50;35.75;;;;;9.09;83.06;101537.28;5062156;28;45314;-75
2022/03/05 06:20:43;;;;;;;;;38.00;24.75;;;;;9.10;82.37;101532.97;5061747;28;45303;-76
2022/03/05 06:23:08;;;;;;;;;42.25;35.50;;;;;9.11;82.17;101532.94;5062376;28;45267;-74
2022/03/05 06:25:33;;;;;;;;;45.25;37.00;;;;;9.12;82.26;101533.81;5061763;28;45287;-72
2022/03/05 06:27:59;;;;;;;;;52.00;37.00;;;;;9.12;82.11;101534.66;5062036;28;46040;-73
2022/03/05 06:30:24;;;;;;;;;47.25;38.00;;;;;9.10;82.43;101536.41;5061634;28;45311;-72
2022/03/05 06:32:50;;;;;;;;;41.75;33.50;;;;;9.10;82.48;101540.75;5061211;28;45498;-72
2022/03/05 06:35:15;;;;;;;;;43.50;36.00;;;;;9.08;82.14;101545.06;5077111;28;45220;-73
2022/03/05 06:37:41;;;;;;;;;57.75;40.25;;;;;9.07;82.93;101538.16;5061602;28;45367;-72
2022/03/05 06:40:10;;;;;;;;;49.25;37.00;;;;;9.12;82.48;101546.75;5060932;28;45244;-72
2022/03/05 06:42:35;;;;;;;;;44.75;38.00;;;;;9.15;82.24;101549.31;5062172;28;45331;-71
2022/03/05 06:45:01;;;;;;;;;50.00;35.50;;;;;9.17;82.56;101555.34;5061780;28;45586;-71
2022/03/05 06:47:26;;;;;;;;;44.75;35.75;;;;;9.18;82.51;101551.03;5061540;28;46284;-72
2022/03/05 06:49:51;;;;;;;;;46.50;40.50;;;;;9.22;81.82;101555.34;5061430;28;45523;-72
2022/03/05 06:52:17;;;;;;;;;52.00;38.75;;;;;9.24;81.90;101557.03;5062131;28;45350;-74
2022/03/05 06:54:42;;;;;;;;;55.00;41.00;;;;;9.25;82.24;101553.56;5061340;28;45294;-73
2022/03/05 06:57:08;;;;;;;;;55.50;35.50;;;;;9.31;81.87;101555.25;5061766;28;45458;-73
2022/03/05 06:59:33;;;;;;;;;54.75;34.00;;;;;9.32;82.11;101556.97;5061315;28;45438;-70
2022/03/05 07:01:59;;;;;;;;;53.50;35.75;;;;;9.37;82.13;101562.97;5061657;28;45313;-71
2022/03/05 07:04:24;;;;;;;;;54.75;38.75;;;;;9.42;81.74;101567.25;5076792;28;45430;-72
2022/03/05 07:06:49;;;;;;;;;48.25;36.50;;;;;9.44;81.38;101567.25;5061227;28;46253;-71
2022/03/05 07:09:15;;;;;;;;;52.50;37.50;;;;;9.49;81.06;101568.03;5059861;28;45857;-71
2022/03/05 07:11:41;;;;;;;;;56.75;39.00;;;;;9.51;81.19;101581.88;5059861;28;45320;-71
2022/03/05 07:14:06;;;;;;;;;49.75;37.00;;;;;9.54;81.19;101580.97;5060560;28;45385;-74
2022/03/05 07:16:31;;;;;;;;;50.75;38.75;;;;;9.58;81.34;101572.28;5060731;28;46359;-74
2022/03/05 07:18:57;;;;;;;;;45.75;36.00;;;;;9.62;80.81;101581.78;5061063;28;45197;-74
2022/03/05 07:21:22;;;;;;;;;59.50;38.00;;;;;9.60;80.46;101579.16;5061080;28;45905;-75
2022/03/05 07:23:47;;;;;;;;;49.25;39.00;;;;;9.61;80.81;101583.50;5061267;28;45234;-74
2022/03/05 07:26:13;;;;;;;;;55.50;39.25;;;;;9.60;80.43;101583.50;5061238;28;45220;-72
2022/03/05 07:28:38;;;;;;;;;58.25;38.00;;;;;9.59;80.90;101590.41;5061026;28;45518;-72
2022/03/05 07:31:04;;;;;;;;;55.50;38.75;;;;;9.61;80.52;101585.22;5060742;28;45291;-70
2022/03/05 07:33:29;;;;;;;;;55.25;39.25;;;;;9.65;80.47;101589.53;5069026;28;45531;-70
2022/03/05 07:35:54;;;;;;;;;57.00;36.75;;;;;9.69;80.65;101588.59;5063979;28;46359;-71
2022/03/05 07:38:20;;;;;;;;;34.00;24.50;;;;;9.71;80.38;101589.44;5070943;28;45308;-71
2022/03/05 07:40:46;;;;;;;;;56.00;41.25;;;;;9.76;80.16;101590.25;5063837;28;45322;-71
2022/03/05 07:43:14;;;;;;;;;52.25;39.25;;;;;9.80;79.77;101599.72;5060798;28;45461;-72
2022/03/05 07:45:40;;;;;;;;;84.25;59.25;;;;;9.84;80.19;101595.38;5060815;28;45571;-71
2022/03/05 07:48:05;;;;;;;;;60.00;40.50;;;;;9.87;79.51;101603.13;5060204;28;45203;-72
2022/03/05 07:50:31;;;;;;;;;39.00;27.75;;;;;9.87;79.43;101605.72;5061301;28;45311;-72
2022/03/05 07:52:56;;;;;;;;;56.25;39.50;;;;;9.86;79.73;101606.59;5060878;28;45608;-72
2022/03/05 07:55:22;;;;;;;;;55.50;40.25;;;;;9.86;79.74;101606.59;5060702;28;46186;-72
2022/03/05 07:57:47;;;;;;;;;53.75;39.00;;;;;9.89;79.72;101606.56;5060536;28;45282;-71
2022/03/05 08:00:13;;;;;;;;;45.00;35.25;;;;;9.90;79.21;101609.16;5060767;28;45276;-71
2022/03/05 08:02:42;;;;;;;;;57.00;39.50;;;;;9.92;79.67;101611.72;5060210;28;45540;-68
2022/03/05 08:05:07;;;;;;;;;55.00;39.50;;;;;9.93;79.39;101614.31;5093244;27;47144;-70
2022/03/05 08:07:33;;;;;;;;;54.50;38.25;;;;;9.95;78.71;101620.34;5060262;28;45347;-74
2022/03/05 08:09:59;;;;;;;;;59.75;41.75;;;;;9.92;79.03;101614.31;5060789;28;45478;-75
2022/03/05 08:12:24;;;;;;;;;57.00;40.50;;;;;9.83;78.96;101610.09;5060159;28;45551;-73
2022/03/05 08:14:50;;;;;;;;;60.00;40.00;;;;;9.83;78.69;101611.84;5060691;28;46230;-73
2022/03/05 08:17:15;;;;;;;;;59.50;38.75;;;;;9.82;79.15;101616.16;5060099;28;45215;-74
2022/03/05 08:19:41;;;;;;;;;49.50;33.00;;;;;9.82;79.31;101618.75;5059340;28;45282;-73
2022/03/05 08:22:07;;;;;;;;;56.75;36.50;;;;;9.85;78.76;101618.72;5058106;28;45445;-73
2022/03/05 08:24:32;;;;;;;;;51.00;38.00;;;;;9.88;79.10;101612.66;5055903;28;47109;-74
2022/03/05 08:26:57;;;;;;;;;49.25;38.50;;;;;9.86;78.48;101612.66;5059335;28;45409;-73
2022/03/05 08:29:23;;;;;;;;;53.00;36.25;;;;;9.86;79.07;101617.84;5059882;28;45366;-73
2022/03/05 08:31:49;;;;;;;;;56.25;43.00;;;;;9.90;78.88;101610.88;5058088;28;45620;-74
2022/03/05 08:34:14;;;;;;;;;54.00;37.50;;;;;9.91;78.64;101604.81;5059274;28;46374;-73
2022/03/05 08:36:39;;;;;;;;;56.50;40.50;;;;;9.96;78.70;101616.84;5058573;28;45397;-74
2022/03/05 08:39:05;;;;;;;;;58.25;41.25;;;;;9.97;78.30;101621.19;5058718;28;45284;-74
2022/03/05 08:41:30;;;;;;;;;62.50;39.50;;;;;10.01;78.37;101617.69;5056963;28;45375;-74
2022/03/05 08:43:56;;;;;;;;;48.00;37.25;;;;;10.07;78.04;101616.75;5058619;28;46028;-75
2022/03/05 08:46:22;;;;;;;;;51.00;36.50;;;;;10.15;77.99;101621.84;5057786;28;45522;-74
2022/03/05 08:48:47;;;;;;;;;53.50;38.25;;;;;10.22;77.91;101623.56;5059012;28;45419;-77
2022/03/05 08:51:13;;;;;;;;;53.25;39.00;;;;;10.25;77.77;101620.91;5059665;28;45295;-71
2022/03/05 08:53:38;;;;;;;;;53.25;41.00;;;;;10.34;77.51;101618.19;5060109;28;45592;-70
2022/03/05 08:56:04;;;;;;;;;54.50;39.75;;;;;10.43;77.53;101612.91;5059678;28;45425;-71
2022/03/05 08:58:30;;;;;;;;;45.75;37.00;;;;;10.51;77.43;101618.84;5062017;27;45542;-72
2022/03/05 09:00:59;;;;;;;;;52.50;38.00;;;;;10.57;77.05;101612.69;5057866;28;45604;-72
2022/03/05 09:03:25;;;;;;;;;58.00;38.25;;;;;10.61;76.72;101616.97;5058226;28;45324;-72
2022/03/05 09:05:50;;;;;;;;;52.25;38.75;;;;;10.66;76.60;101615.19;5056806;28;45296;-76
2022/03/05 09:08:16;;;;;;;;;44.50;38.00;;;;;10.76;76.67;101618.50;5058148;28;45823;-73
2022/03/05 09:10:41;;;;;;;;;53.00;39.75;;;;;10.81;75.47;101614.09;5058092;28;45527;-73
2022/03/05 09:13:07;;;;;;;;;52.00;39.50;;;;;10.82;75.94;101616.69;5058193;28;45554;-73
2022/03/05 09:15:32;;;;;;;;;50.50;40.50;;;;;10.88;75.54;101620.94;5057728;28;45346;-74
2022/03/05 09:17:58;;;;;;;;;56.00;39.00;;;;;10.91;74.29;101620.88;5058085;28;45345;-75
2022/03/05 09:20:23;;;;;;;;;51.75;38.25;;;;;10.92;75.34;101617.41;5057738;28;45358;-73
2022/03/05 09:22:49;;;;;;;;;52.50;42.75;;;;;10.96;75.27;101614.72;5057931;28;46775;-72
2022/03/05 09:25:14;;;;;;;;;56.00;40.25;;;;;11.08;75.33;101616.28;5059159;28;45706;-80
2022/03/05 09:27:40;;;;;;;;;54.00;38.00;;;;;11.22;75.15;101616.94;5058450;28;45315;-80
2022/03/05 09:30:07;;;;;;;;;55.50;43.25;;;;;11.34;74.79;101617.59;5057576;28;45505;-77
2022/03/05 09:32:32;;;;;;;;;52.25;39.50;;;;;11.46;73.33;101615.66;5056525;28;45532;-70
2022/03/05 09:34:59;;;;;;;;;56.25;39.00;;;;;11.51;73.16;101624.25;5061555;28;45418;-72
2022/03/05 09:37:30;;;;;;;;;53.25;38.25;;;;;11.44;72.36;101627.00;5060382;28;45486;-79
2022/03/05 09:39:58;;;;;;;;;48.25;32.00;;;;;11.40;72.50;101623.56;5061533;28;45323;-79
2022/03/05 09:42:25;;;;;;;;;56.50;39.25;;;;;11.47;72.55;101626.94;5060372;28;45446;-79
2022/03/05 09:44:51;;;;;;;;;52.75;41.00;;;;;11.51;72.37;101626.84;5063280;28;45929;-79
2022/03/05 09:47:16;;;;;;;;;53.00;42.00;;;;;11.65;73.41;101621.41;5064115;28;45328;-77
2022/03/05 09:49:42;;;;;;;;;57.25;38.25;;;;;11.75;71.91;101617.75;5062053;28;45430;-70
2022/03/05 09:52:08;;;;;;;;;52.75;39.50;;;;;11.81;72.22;101612.47;5061916;28;46432;-69
2022/03/05 09:54:34;;;;;;;;;52.00;39.00;;;;;11.96;72.91;101615.66;5062045;28;45247;-69
2022/03/05 09:57:00;;;;;;;;;57.00;40.75;;;;;12.00;71.67;101618.16;5062023;28;45526;-67
2022/03/05 09:59:26;;;;;;;;;58.00;39.00;;;;;12.00;72.38;101622.53;5065790;28;45593;-72
2022/03/05 10:01:51;;;;;;;;;54.50;43.00;;;;;12.05;71.73;101615.50;5061829;28;45422;-70
2022/03/05 10:04:24;;;;;;;;;58.75;41.50;;;;;12.19;71.61;101622.13;5062181;28;45241;-72
2022/03/05 10:07:05;;;;;;;;;55.00;41.00;;;;;12.26;71.71;101615.06;5062493;28;45464;-72
2022/03/05 10:09:30;;;;;;;;;53.25;36.50;;;;;12.41;71.70;101619.97;5062260;28;45264;-68
2022/03/05 10:11:56;;;;;;;;;39.75;32.75;;;;;12.68;71.17;101620.25;5062314;28;45344;-69
2022/03/05 10:14:21;;;;;;;;;52.25;40.75;;;;;12.89;70.22;101619.78;5060733;28;45329;-65
2022/03/05 10:16:47;;;;;;;;;51.00;40.00;;;;;13.43;71.54;101616.78;5062394;28;45311;-67
2022/03/05 10:19:23;;;;;;;;;58.00;45.00;;;;;14.42;69.70;101616.69;5061694;28;45380;-69
2022/03/05 10:21:57;;;;;;;;;52.50;39.00;;;;;14.63;65.57;101612.59;5061993;28;46271;-68
2022/03/05 10:24:32;;;;;;;;;52.25;40.00;;;;;14.43;66.92;101615.81;5062239;28;45330;-67
2022/03/05 10:26:59;;;;;;;;;57.00;42.75;;;;;14.18;65.93;101626.06;5061891;28;45611;-68
2022/03/05 10:29:39;;;;;;;;;54.00;39.25;;;;;14.34;66.85;101609.94;5060978;28;45422;-67
2022/03/05 10:32:10;;;;;;;;;54.25;39.25;;;;;14.71;65.75;101615.81;5061585;28;45365;-62
2022/03/05 10:34:41;;;;;;;;;54.75;42.25;;;;;14.83;66.03;101615.47;5061833;28;45243;-62
2022/03/05 10:37:08;;;;;;;;;56.25;40.25;;;;;14.72;64.98;101614.91;5094942;27;45428;-64
2022/03/05 10:39:33;;;;;;;;;53.50;38.25;;;;;14.71;64.94;101604.50;5061547;28;45501;-69
2022/03/05 10:42:00;;;;;;;;;58.00;42.25;;;;;15.25;65.03;101609.75;5060598;28;47475;-64
2022/03/05 10:44:26;;;;;;;;;51.25;39.25;;;;;15.39;62.00;101607.50;5061042;28;45240;-61
2022/03/05 10:46:55;;;;;;;;;56.00;37.50;;;;;15.20;62.44;101619.50;5061524;28;45373;-61
2022/03/05 10:49:22;;;;;;;;;57.50;40.50;;;;;15.05;63.31;101610.41;5061654;28;45316;-63
2022/03/05 10:52:04;;;;;;;;;54.00;40.25;;;;;14.96;62.97;101605.44;5061916;28;46446;-70
2022/03/05 10:54:40;;;;;;;;;50.00;38.25;;;;;15.37;63.30;101611.94;5061666;28;45939;-66
2022/03/05 10:57:10;;;;;;;;;51.75;36.75;;;;;15.42;59.63;101611.81;5061407;28;45406;-66
2022/03/05 10:59:40;;;;;;;;;54.75;41.50;;;;;15.39;62.15;101602.25;5061003;28;45469;-66
2022/03/05 11:02:07;;;;;;;;;47.50;37.75;;;;;15.45;61.50;101612.56;5058165;28;46544;-65
2022/03/05 11:04:39;;;;;;;;;50.50;38.75;;;;;15.26;60.70;101605.38;5060578;28;45951;-66
2022/03/05 11:07:06;;;;;;;;;51.75;38.50;;;;;15.18;61.18;101608.22;5060960;28;45322;-65
2022/03/05 11:09:34;;;;;;;;;51.50;37.50;;;;;16.04;61.02;101601.78;5060737;28;45497;-64